Kayes, Mali
Current Conditions -  °F | °C
As of 11:00 AM on Tuesday 21 Oct 2014 (Local Time) from GOTT Reporting Station
Clear Clear  
Wind Chill: 93°   Ceiling: Unl
Heat Index: 105°   Visibility: 6mi
Dew Point: 75°   Wind: 5mph
Humidity: 56%   Direction: 260°W
Pressure: 29.91"   Gusts: NA
Location:  14.45°N, 11.44°W
Report Text: GOTT 211100Z 26004KT CAVOK 34/24 Q1013
Loading
Personal Weather Stations






























Interactive Weather Map
Tropical Storm Tracking
New forecast layout! Learn more

10-Day Weather Forecast

Advertisements
Track Severe Weather on mobile